Time;durP1;ratioP1;P1;durP2;ratioP2;P2;SDS_P1;SDS_P2;PMS_P1;PMS_P2;Temp;Humidity;BMP_temperature;BMP_pressure;BME280_temperature;BME280_humidity;BME280_pressure;Samples;Min_cycle;Max_cycle;Signal;HPM_P1;HPM_P2
2024/01/28 00:03:20;;;;;;;11.90;3.50;;;4.70;99.90;;;;;;10283334;28;20211;-84
2024/01/28 00:08:42;;;;;;;15.77;3.90;;;4.60;99.90;;;;;;10346526;28;20207;-84
2024/01/28 00:14:03;;;;;;;11.37;3.90;;;4.70;99.90;;;;;;10394281;28;20234;-84
2024/01/28 00:19:25;;;;;;;14.80;3.83;;;4.70;1.00;;;;;;10472884;28;20414;-84
2024/01/28 00:24:46;;;;;;;12.10;3.23;;;4.60;1.00;;;;;;10268639;28;20560;-84
2024/01/28 00:30:09;;;;;;;11.60;3.27;;;4.60;54.60;;;;;;10255065;28;20410;-84
2024/01/28 00:35:30;;;;;;;12.67;3.10;;;4.70;1.00;;;;;;10273832;28;20282;-84
2024/01/28 00:40:51;;;;;;;10.90;2.60;;;4.80;1.00;;;;;;10354855;28;20531;-84
2024/01/28 00:46:13;;;;;;;12.13;3.17;;;4.70;99.90;;;;;;10324050;28;20196;-84
2024/01/28 00:51:34;;;;;;;13.27;3.43;;;4.70;99.90;;;;;;10289203;28;20212;-82
2024/01/28 00:56:58;;;;;;;7.27;2.50;;;4.70;1.00;;;;;;10292881;28;20204;-82
2024/01/28 01:02:19;;;;;;;12.30;3.50;;;4.70;1.00;;;;;;10378144;28;20236;-83
2024/01/28 01:07:41;;;;;;;9.17;3.23;;;4.70;1.00;;;;;;10377077;28;20209;-83
2024/01/28 01:13:02;;;;;;;12.07;3.30;;;4.80;1.00;;;;;;10297734;28;20201;-83
2024/01/28 01:18:24;;;;;;;12.17;3.27;;;4.80;1.00;;;;;;10514096;28;20261;-83
2024/01/28 01:23:45;;;;;;;12.67;3.17;;;4.70;1.00;;;;;;10274055;28;20204;-82
2024/01/28 01:29:06;;;;;;;11.57;2.97;;;4.70;1.00;;;;;;10393690;28;20200;-82
2024/01/28 01:34:27;;;;;;;9.30;2.73;;;4.70;1.00;;;;;;10305842;28;20203;-81
2024/01/28 01:39:49;;;;;;;8.70;3.00;;;4.70;1.00;;;;;;10376507;28;20228;-82
2024/01/28 01:45:12;;;;;;;14.23;3.27;;;4.80;1.00;;;;;;10377928;28;20227;-84
2024/01/28 01:50:34;;;;;;;11.93;2.50;;;4.70;1.00;;;;;;10362176;28;20294;-82
2024/01/28 01:55:55;;;;;;;13.57;2.60;;;4.70;1.00;;;;;;10376073;28;20206;-83
2024/01/28 02:01:18;;;;;;;13.97;3.07;;;4.80;33.90;;;;;;10376413;28;20245;-83
2024/01/28 02:06:39;;;;;;;13.57;3.53;;;4.80;99.90;;;;;;10389990;28;20200;-83
2024/01/28 02:12:04;;;;;;;12.43;4.00;;;4.80;99.90;;;;;;10390350;28;20434;-85
2024/01/28 02:17:28;;;;;;;12.93;3.53;;;4.80;99.90;;;;;;10287572;28;20307;-83
2024/01/28 02:22:49;;;;;;;8.33;2.73;;;4.80;4.40;;;;;;10356181;28;20212;-84
2024/01/28 02:28:11;;;;;;;11.33;3.13;;;4.80;99.90;;;;;;10265167;29;20215;-81
2024/01/28 02:33:32;;;;;;;10.40;2.90;;;4.80;99.90;;;;;;10334649;28;20200;-83
2024/01/28 02:38:58;;;;;;;10.47;3.17;;;4.80;96.50;;;;;;10378938;28;20236;-83
2024/01/28 02:44:20;;;;;;;10.67;2.83;;;4.80;93.20;;;;;;10323170;28;20201;-82
2024/01/28 02:49:41;;;;;;;15.70;3.37;;;4.80;1.00;;;;;;10354837;28;20254;-84
2024/01/28 02:55:02;;;;;;;11.57;2.80;;;4.90;1.00;;;;;;10338789;28;20229;-83
2024/01/28 03:00:24;;;;;;;12.50;3.10;;;4.90;1.00;;;;;;10389027;28;20301;-84
2024/01/28 03:05:45;;;;;;;10.47;3.10;;;4.80;1.00;;;;;;10374618;28;20229;-84
2024/01/28 03:11:06;;;;;;;9.83;2.43;;;4.90;1.00;;;;;;10405890;28;20204;-84
2024/01/28 03:16:28;;;;;;;13.43;2.97;;;4.90;99.90;;;;;;10369843;28;20224;-82
2024/01/28 03:21:49;;;;;;;10.77;2.73;;;5.00;99.90;;;;;;10381881;28;20584;-83
2024/01/28 03:27:11;;;;;;;14.73;3.17;;;5.00;1.00;;;;;;10398670;28;20237;-83
2024/01/28 03:32:32;;;;;;;17.47;3.30;;;5.00;99.90;;;;;;10381340;28;20209;-84
2024/01/28 03:37:55;;;;;;;12.47;2.90;;;5.00;1.00;;;;;;10380964;28;20203;-84
2024/01/28 03:43:17;;;;;;;19.90;2.90;;;5.00;1.00;;;;;;10412062;28;20282;-83
2024/01/28 03:48:40;;;;;;;11.57;2.77;;;4.90;1.00;;;;;;10380212;28;20540;-84
2024/01/28 03:54:01;;;;;;;13.37;2.77;;;4.90;99.90;;;;;;10283401;28;20205;-84
2024/01/28 03:59:24;;;;;;;17.07;3.27;;;4.90;99.90;;;;;;10325643;28;20243;-84
2024/01/28 04:04:45;;;;;;;11.90;2.53;;;5.00;1.00;;;;;;10354084;28;20472;-84
2024/01/28 04:10:07;;;;;;;15.00;2.97;;;4.90;1.00;;;;;;10326999;28;20228;-84
2024/01/28 04:15:28;;;;;;;13.83;2.73;;;5.00;1.00;;;;;;10334800;28;20204;-83
2024/01/28 04:20:49;;;;;;;8.40;2.63;;;4.90;1.00;;;;;;10522591;28;20271;-83
2024/01/28 04:26:12;;;;;;;17.30;3.27;;;4.90;99.90;;;;;;10506144;28;20204;-83
2024/01/28 04:31:33;;;;;;;9.40;3.03;;;5.00;99.90;;;;;;10519162;28;20211;-82
2024/01/28 04:36:55;;;;;;;9.33;2.67;;;5.00;1.00;;;;;;10425484;28;20204;-84
2024/01/28 04:42:21;;;;;;;11.07;2.00;;;5.00;1.00;;;;;;10332370;28;20307;-83
2024/01/28 04:47:43;;;;;;;11.23;2.70;;;5.00;99.90;;;;;;10286506;28;20207;-83
2024/01/28 04:53:04;;;;;;;7.43;2.30;;;4.90;18.60;;;;;;10269300;28;20193;-83
2024/01/28 04:58:25;;;;;;;11.80;2.73;;;4.90;73.50;;;;;;10368295;28;20221;-84
2024/01/28 05:03:47;;;;;;;12.50;3.03;;;4.90;1.00;;;;;;10357081;28;20270;-82
2024/01/28 05:09:10;;;;;;;12.33;6.73;;;4.90;99.90;;;;;;10378369;28;20212;-84
2024/01/28 05:14:31;;;;;;;11.97;6.20;;;4.80;1.00;;;;;;10287539;28;20517;-84
2024/01/28 05:19:52;;;;;;;9.13;1.97;;;4.80;99.90;;;;;;10272003;28;20268;-84
2024/01/28 05:25:14;;;;;;;8.07;2.13;;;4.80;1.00;;;;;;10280364;28;20195;-83
2024/01/28 05:30:35;;;;;;;6.07;2.00;;;4.80;1.00;;;;;;10253066;28;20298;-84
2024/01/28 05:36:14;;;;;;;7.47;2.70;;;4.80;99.90;;;;;;10260491;28;20708;-83
2024/01/28 05:41:36;;;;;;;6.37;1.33;;;4.70;1.00;;;;;;10324596;28;20223;-84
2024/01/28 05:47:05;;;;;;;8.97;1.73;;;4.70;1.00;;;;;;10358971;28;20199;-83
2024/01/28 05:52:29;;;;;;;7.90;2.23;;;4.80;1.00;;;;;;10361880;28;20398;-81
2024/01/28 05:57:50;;;;;;;6.60;2.30;;;4.80;99.90;;;;;;10377246;28;20195;-81
2024/01/28 06:03:11;;;;;;;13.40;3.50;;;4.80;1.00;;;;;;10324633;28;20235;-84
2024/01/28 06:08:33;;;;;;;14.10;2.20;;;4.80;99.90;;;;;;10349440;28;20211;-82
2024/01/28 06:13:55;;;;;;;8.47;2.90;;;4.80;99.90;;;;;;10319330;28;20231;-80
2024/01/28 06:19:17;;;;;;;8.47;2.03;;;4.80;1.00;;;;;;10500131;28;20538;-82
2024/01/28 06:24:40;;;;;;;6.93;2.13;;;4.70;99.90;;;;;;10517660;28;20225;-82
2024/01/28 06:30:03;;;;;;;5.57;1.80;;;4.60;1.00;;;;;;10500841;28;20421;-84
2024/01/28 06:35:27;;;;;;;8.10;1.80;;;4.60;1.00;;;;;;10430197;28;20265;-82
2024/01/28 06:40:50;;;;;;;7.00;1.87;;;4.60;99.90;;;;;;10283416;28;20236;-82
2024/01/28 06:46:19;;;;;;;4.40;1.50;;;4.60;99.90;;;;;;10326514;28;20293;-83
2024/01/28 06:51:43;;;;;;;6.57;1.80;;;4.60;99.90;;;;;;10277525;28;20374;-83
2024/01/28 06:57:04;;;;;;;5.40;1.63;;;4.70;1.00;;;;;;10384719;28;20195;-84
2024/01/28 07:02:25;;;;;;;4.27;1.80;;;4.60;1.00;;;;;;10375663;28;20530;-82
2024/01/28 07:07:47;;;;;;;6.53;1.87;;;4.70;99.90;;;;;;10373203;28;20203;-83
2024/01/28 07:13:08;;;;;;;5.63;1.70;;;4.70;99.90;;;;;;10337425;28;20199;-82
2024/01/28 07:18:30;;;;;;;4.93;1.87;;;4.60;1.00;;;;;;10470395;28;20543;-83
2024/01/28 07:23:53;;;;;;;4.50;1.50;;;4.60;1.00;;;;;;10525061;28;20212;-84
2024/01/28 07:29:17;;;;;;;6.93;1.93;;;4.70;95.70;;;;;;10508165;28;20204;-83
2024/01/28 07:34:40;;;;;;;7.40;2.40;;;4.70;1.00;;;;;;10357049;28;20323;-84
2024/01/28 07:40:04;;;;;;;10.13;3.80;;;4.70;99.90;;;;;;10303566;28;20228;-84
2024/01/28 07:45:25;;;;;;;24.17;9.10;;;4.70;1.00;;;;;;10382029;28;20199;-81
2024/01/28 07:50:47;;;;;;;12.97;6.40;;;4.70;1.00;;;;;;10397325;28;20283;-82
2024/01/28 07:56:09;;;;;;;17.30;7.33;;;4.80;1.00;;;;;;10396488;28;20501;-83
2024/01/28 08:01:33;;;;;;;19.00;10.27;;;4.80;1.00;;;;;;10409389;28;20224;-83
2024/01/28 08:06:56;;;;;;;29.40;14.37;;;4.80;1.00;;;;;;10330140;28;20225;-84
2024/01/28 08:12:18;;;;;;;22.53;11.30;;;4.80;19.70;;;;;;10374279;28;20204;-83
2024/01/28 08:17:39;;;;;;;21.90;9.47;;;4.90;1.00;;;;;;10483583;28;20196;-81
2024/01/28 08:23:01;;;;;;;18.13;7.20;;;4.80;99.90;;;;;;10521644;28;20266;-82
2024/01/28 08:28:22;;;;;;;32.67;14.13;;;4.90;99.90;;;;;;10505420;28;20205;-82
2024/01/28 08:33:44;;;;;;;40.30;19.20;;;4.90;1.00;;;;;;10366997;28;20235;-83
2024/01/28 08:39:05;;;;;;;36.87;16.30;;;4.90;1.00;;;;;;10364696;28;20477;-84
2024/01/28 08:44:27;;;;;;;26.00;11.97;;;5.00;1.00;;;;;;10410180;28;20210;-83
2024/01/28 08:49:48;;;;;;;28.63;10.47;;;5.00;1.00;;;;;;10326452;28;20279;-84
2024/01/28 08:55:10;;;;;;;33.20;14.17;;;5.00;1.00;;;;;;10409674;28;20500;-83
2024/01/28 09:00:31;;;;;;;13.90;6.40;;;5.10;1.00;;;;;;10321114;28;20237;-83
2024/01/28 09:05:52;;;;;;;12.60;5.80;;;5.20;99.90;;;;;;10320217;28;20220;-84
2024/01/28 09:11:14;;;;;;;23.57;10.47;;;5.30;89.90;;;;;;10393536;28;20203;-83
2024/01/28 09:16:35;;;;;;;21.90;10.30;;;5.30;1.00;;;;;;10372204;28;20206;-84
2024/01/28 09:21:57;;;;;;;21.17;7.87;;;5.40;1.00;;;;;;10517091;28;20254;-84
2024/01/28 09:27:18;;;;;;;13.83;6.03;;;5.40;1.00;;;;;;10517243;28;20197;-83
2024/01/28 09:32:40;;;;;;;9.57;4.67;;;5.50;99.90;;;;;;10387034;28;20220;-83
2024/01/28 09:38:01;;;;;;;13.83;5.63;;;5.50;99.90;;;;;;10311286;28;20202;-83
2024/01/28 09:43:31;;;;;;;16.50;7.30;;;5.60;1.00;;;;;;10392502;28;20229;-83
2024/01/28 09:48:53;;;;;;;12.73;5.27;;;5.60;1.00;;;;;;10377558;28;20214;-83
2024/01/28 09:54:14;;;;;;;12.13;4.70;;;5.60;1.00;;;;;;10407261;28;20460;-83
2024/01/28 09:59:36;;;;;;;15.03;4.40;;;5.60;99.90;;;;;;10324630;28;20246;-83
2024/01/28 10:04:57;;;;;;;12.23;4.67;;;5.60;16.30;;;;;;10289232;28;20204;-84
2024/01/28 10:10:19;;;;;;;21.57;9.07;;;5.50;99.90;;;;;;10374973;28;20208;-82
2024/01/28 10:15:40;;;;;;;15.33;5.30;;;5.50;1.00;;;;;;10410413;28;20279;-83
2024/01/28 10:21:01;;;;;;;10.60;3.43;;;5.40;1.00;;;;;;10517739;28;20240;-82
2024/01/28 10:26:24;;;;;;;23.00;8.53;;;5.50;99.90;;;;;;10503980;28;20266;-84
2024/01/28 10:31:45;;;;;;;13.57;5.00;;;5.40;99.90;;;;;;10450579;28;20243;-83
2024/01/28 10:37:11;;;;;;;10.83;4.20;;;5.30;99.90;;;;;;10326682;28;20273;-81
2024/01/28 10:42:39;;;;;;;9.93;2.80;;;5.40;49.00;;;;;;10323656;28;20677;-83
2024/01/28 10:48:08;;;;;;;18.43;7.33;;;5.40;46.60;;;;;;10405901;28;20200;-83
2024/01/28 10:53:32;;;;;;;11.60;5.27;;;5.40;99.90;;;;;;10374690;28;20200;-83
2024/01/28 10:58:53;;;;;;;18.20;7.10;;;5.40;99.90;;;;;;10404508;28;20195;-82
2024/01/28 11:04:15;;;;;;;16.03;4.90;;;5.40;99.90;;;;;;10404559;28;20231;-81
2024/01/28 11:09:37;;;;;;;23.40;9.93;;;5.40;99.90;;;;;;10462720;28;20262;-84
2024/01/28 11:15:01;;;;;;;40.43;20.53;;;5.50;1.00;;;;;;10297648;28;20216;-83
2024/01/28 11:20:31;;;;;;;30.10;11.63;;;5.60;99.90;;;;;;10500172;28;20253;-83
2024/01/28 11:25:55;;;;;;;21.17;8.87;;;5.60;99.90;;;;;;10500742;28;20265;-83
2024/01/28 11:31:23;;;;;;;16.83;7.77;;;5.70;1.00;;;;;;10475878;28;20273;-82
2024/01/28 11:36:47;;;;;;;11.00;4.60;;;5.90;1.00;;;;;;10291073;28;20230;-83
2024/01/28 11:42:08;;;;;;;19.70;7.47;;;5.90;1.00;;;;;;10362435;28;20298;-84
2024/01/28 11:47:30;;;;;;;9.77;3.27;;;5.90;1.00;;;;;;10412276;28;20201;-84
2024/01/28 11:52:51;;;;;;;7.63;3.67;;;6.10;1.00;;;;;;10311101;28;20197;-84
2024/01/28 11:58:16;;;;;;;12.07;5.57;;;6.20;99.90;;;;;;10366734;28;20239;-83
2024/01/28 12:03:38;;;;;;;9.73;3.90;;;6.50;1.00;;;;;;10290744;28;20242;-84
2024/01/28 12:09:00;;;;;;;9.23;4.27;;;7.60;99.90;;;;;;10429865;28;20271;-84
2024/01/28 12:14:22;;;;;;;5.27;2.80;;;8.30;99.90;;;;;;10276336;28;20256;-83
2024/01/28 12:19:43;;;;;;;14.73;4.83;;;8.50;11.70;;;;;;10255244;28;20227;-83
2024/01/28 12:25:13;;;;;;;9.27;4.50;;;8.10;19.60;;;;;;10269653;29;20579;-83
2024/01/28 12:30:36;;;;;;;12.83;4.40;;;7.90;1.00;;;;;;10281680;28;20210;-81
2024/01/28 12:36:07;;;;;;;11.47;4.33;;;7.40;99.90;;;;;;10358785;28;20220;-81
2024/01/28 12:41:28;;;;;;;10.13;4.20;;;7.00;99.90;;;;;;10335457;28;20241;-82
2024/01/28 12:46:50;;;;;;;13.90;3.37;;;6.90;99.90;;;;;;10376948;28;20524;-81
2024/01/28 12:52:12;;;;;;;9.87;3.70;;;6.90;99.90;;;;;;10362005;28;20430;-81
2024/01/28 12:57:35;;;;;;;6.97;2.30;;;6.90;1.00;;;;;;10323260;28;20520;-82
2024/01/28 13:02:57;;;;;;;14.47;4.63;;;6.80;1.00;;;;;;10340471;28;20571;-82
2024/01/28 13:08:21;;;;;;;8.73;2.60;;;6.80;1.00;;;;;;10320547;28;20198;-84
2024/01/28 13:13:43;;;;;;;7.53;2.30;;;6.70;1.00;;;;;;10319534;28;20206;-83
2024/01/28 13:19:04;;;;;;;10.23;4.87;;;6.50;1.00;;;;;;10350799;28;20236;-82
2024/01/28 13:24:26;;;;;;;17.17;6.40;;;6.50;1.00;;;;;;10365378;28;20261;-83
2024/01/28 13:29:48;;;;;;;14.17;6.27;;;6.60;1.00;;;;;;10332552;28;20285;-81
2024/01/28 13:35:14;;;;;;;25.77;10.50;;;6.60;1.00;;;;;;10359567;28;20192;-81
2024/01/28 13:40:35;;;;;;;32.60;14.33;;;6.40;1.00;;;;;;10293696;28;20256;-81
2024/01/28 13:46:07;;;;;;;19.50;8.50;;;6.40;1.00;;;;;;10313711;28;20215;-83
2024/01/28 13:51:28;;;;;;;20.27;9.07;;;6.40;1.00;;;;;;10279522;28;20206;-84
2024/01/28 13:56:49;;;;;;;17.83;8.00;;;6.30;1.00;;;;;;10338357;28;20202;-82
2024/01/28 14:02:11;;;;;;;31.70;12.50;;;6.10;1.00;;;;;;10351912;28;20246;-81
2024/01/28 14:07:32;;;;;;;30.60;12.93;;;5.90;1.00;;;;;;10278105;28;20485;-82
2024/01/28 14:12:54;;;;;;;35.30;16.47;;;5.80;1.00;;;;;;10366362;28;20326;-81
2024/01/28 14:18:15;;;;;;;45.63;19.43;;;5.70;99.90;;;;;;10379173;28;20544;-83
2024/01/28 14:23:37;;;;;;;44.73;19.40;;;5.70;99.90;;;;;;10391954;28;20286;-83
2024/01/28 14:29:01;;;;;;;40.53;18.27;;;5.60;99.90;;;;;;10374131;28;20429;-84
2024/01/28 14:34:23;;;;;;;26.23;12.03;;;5.60;99.90;;;;;;10375756;28;20189;-81
2024/01/28 14:39:45;;;;;;;25.40;11.20;;;5.60;1.00;;;;;;10304710;28;20227;-82
2024/01/28 14:45:11;;;;;;;29.90;13.70;;;5.50;1.00;;;;;;10405145;28;20367;-84
2024/01/28 14:50:35;;;;;;;32.80;15.80;;;5.50;1.00;;;;;;10375740;28;20538;-84
2024/01/28 14:55:57;;;;;;;30.53;15.80;;;5.50;1.00;;;;;;10317741;28;20232;-83
2024/01/28 15:01:20;;;;;;;32.40;15.20;;;5.30;1.00;;;;;;10374447;28;20300;-84
2024/01/28 15:06:41;;;;;;;28.33;14.80;;;5.30;1.00;;;;;;10405703;28;20202;-84
2024/01/28 15:12:02;;;;;;;39.97;18.53;;;5.10;1.00;;;;;;10322703;28;20216;-83
2024/01/28 15:17:27;;;;;;;76.13;37.23;;;5.10;1.00;;;;;;10453584;28;20491;-84
2024/01/28 15:22:49;;;;;;;114.63;55.13;;;5.00;1.00;;;;;;10387004;28;20285;-83
2024/01/28 15:28:10;;;;;;;103.83;51.47;;;4.80;99.90;;;;;;10283871;28;20223;-83
2024/01/28 15:33:32;;;;;;;94.17;44.73;;;4.70;99.90;;;;;;10428876;28;20226;-83
2024/01/28 15:38:54;;;;;;;76.00;38.77;;;4.70;1.00;;;;;;10391214;28;20220;-84
2024/01/28 15:44:15;;;;;;;49.70;24.30;;;4.60;99.90;;;;;;10337361;28;20220;-82
2024/01/28 15:49:36;;;;;;;34.30;16.63;;;4.50;99.90;;;;;;10322603;28;20224;-83
2024/01/28 15:54:58;;;;;;;46.27;20.07;;;4.40;1.00;;;;;;10521128;28;20188;-83
2024/01/28 16:00:19;;;;;;;87.13;39.67;;;4.30;86.60;;;;;;10535508;28;20252;-84
2024/01/28 16:05:42;;;;;;;66.83;32.00;;;4.30;1.00;;;;;;10506486;28;20224;-83
2024/01/28 16:11:06;;;;;;;59.20;28.97;;;4.20;1.00;;;;;;10359938;28;20389;-83
2024/01/28 16:16:30;;;;;;;53.10;23.33;;;4.10;1.00;;;;;;10294374;28;20544;-82
2024/01/28 16:21:52;;;;;;;43.23;20.67;;;4.00;1.00;;;;;;10379829;28;20340;-83
2024/01/28 16:27:13;;;;;;;70.03;35.07;;;3.90;99.90;;;;;;10349033;28;20200;-83
2024/01/28 16:32:35;;;;;;;42.47;22.47;;;3.90;6.70;;;;;;10355689;28;20242;-81
2024/01/28 16:37:56;;;;;;;50.03;22.80;;;3.80;99.90;;;;;;10373279;28;20202;-83
2024/01/28 16:43:17;;;;;;;52.83;23.63;;;3.70;1.00;;;;;;10334947;28;20236;-83
2024/01/28 16:48:38;;;;;;;72.80;34.40;;;3.80;1.00;;;;;;10352806;28;20231;-83
2024/01/28 16:54:00;;;;;;;118.70;57.97;;;3.70;99.90;;;;;;10281545;28;20204;-82
2024/01/28 16:59:21;;;;;;;114.37;57.17;;;3.60;99.90;;;;;;10338033;28;20256;-84
2024/01/28 17:04:43;;;;;;;83.87;43.13;;;3.50;1.00;;;;;;10337570;28;20205;-83
2024/01/28 17:10:04;;;;;;;104.97;47.93;;;3.50;1.00;;;;;;10355434;28;20202;-83
2024/01/28 17:15:30;;;;;;;112.63;52.77;;;3.40;99.90;;;;;;10289007;28;20235;-83
2024/01/28 17:20:52;;;;;;;197.73;87.90;;;3.30;99.90;;;;;;10365908;28;20606;-81
2024/01/28 17:26:16;;;;;;;155.90;72.30;;;3.20;99.90;;;;;;10372832;28;20256;-81
2024/01/28 17:31:38;;;;;;;127.40;60.50;;;3.20;1.00;;;;;;10317753;28;20451;-82
2024/01/28 17:36:59;;;;;;;121.50;54.80;;;3.10;99.90;;;;;;10391441;28;20197;-82
2024/01/28 17:42:21;;;;;;;124.43;53.80;;;3.10;1.00;;;;;;10392498;28;20561;-83
2024/01/28 17:47:45;;;;;;;118.97;55.07;;;3.10;1.00;;;;;;10363768;28;20270;-83
2024/01/28 17:53:07;;;;;;;108.00;50.53;;;3.10;1.00;;;;;;10376160;28;20282;-84
2024/01/28 17:58:29;;;;;;;86.93;45.53;;;3.10;1.00;;;;;;10376577;28;20203;-83
2024/01/28 18:03:50;;;;;;;89.73;43.43;;;3.10;1.00;;;;;;10362704;28;20239;-83
2024/01/28 18:09:11;;;;;;;85.13;43.63;;;3.00;1.00;;;;;;10366178;28;20203;-83
2024/01/28 18:14:33;;;;;;;87.90;45.37;;;2.90;1.00;;;;;;10288264;28;20562;-83
2024/01/28 18:19:54;;;;;;;85.47;47.53;;;2.80;99.90;;;;;;10291416;28;20561;-84
2024/01/28 18:25:16;;;;;;;79.00;45.17;;;2.70;99.90;;;;;;10400846;28;20226;-83
2024/01/28 18:30:38;;;;;;;95.00;48.03;;;2.80;1.00;;;;;;10515701;28;20572;-83
2024/01/28 18:36:00;;;;;;;80.33;43.63;;;2.70;6.50;;;;;;10395879;28;20292;-83
2024/01/28 18:41:22;;;;;;;74.77;37.30;;;2.80;99.90;;;;;;10407061;28;20289;-83
2024/01/28 18:46:43;;;;;;;116.43;48.63;;;2.70;1.00;;;;;;10361605;28;20206;-83
2024/01/28 18:52:05;;;;;;;60.83;35.10;;;2.60;1.00;;;;;;10393692;28;20214;-83
2024/01/28 18:57:26;;;;;;;85.97;40.07;;;2.60;99.90;;;;;;10385519;28;20211;-83
2024/01/28 19:02:47;;;;;;;111.33;52.00;;;2.60;99.90;;;;;;10398783;28;20234;-82
2024/01/28 19:08:10;;;;;;;111.83;52.33;;;2.60;1.00;;;;;;10368181;28;20207;-81
2024/01/28 19:13:31;;;;;;;79.87;41.60;;;2.50;1.00;;;;;;10321482;28;20294;-81
2024/01/28 19:18:52;;;;;;;114.50;54.23;;;2.50;25.20;;;;;;10398121;28;20239;-81
2024/01/28 19:24:14;;;;;;;111.70;53.97;;;2.50;1.00;;;;;;10362291;28;20245;-83
2024/01/28 19:29:36;;;;;;;130.53;62.17;;;2.40;99.90;;;;;;10475297;28;20199;-81
2024/01/28 19:34:58;;;;;;;154.77;61.90;;;2.40;99.90;;;;;;10326766;28;20202;-81
2024/01/28 19:40:19;;;;;;;153.20;55.00;;;2.30;99.90;;;;;;10407623;28;20206;-81
2024/01/28 19:45:41;;;;;;;84.27;35.30;;;2.20;1.00;;;;;;10298638;28;20290;-80
2024/01/28 19:51:02;;;;;;;118.10;44.70;;;2.20;1.00;;;;;;10317248;28;20223;-83
2024/01/28 19:56:24;;;;;;;120.07;51.27;;;2.10;1.00;;;;;;10296064;28;20252;-81
2024/01/28 20:01:46;;;;;;;142.90;50.53;;;2.10;1.00;;;;;;10343195;28;20429;-81
2024/01/28 20:07:12;;;;;;;128.80;44.87;;;2.20;99.90;;;;;;10363612;28;20229;-81
2024/01/28 20:12:38;;;;;;;85.80;35.03;;;2.10;1.00;;;;;;10310744;28;20358;-82
2024/01/28 20:18:00;;;;;;;73.93;34.50;;;2.20;1.00;;;;;;10285462;28;20247;-83
2024/01/28 20:23:21;;;;;;;142.20;55.03;;;2.30;1.00;;;;;;10291888;28;20564;-84
2024/01/28 20:28:43;;;;;;;202.70;69.87;;;2.50;1.00;;;;;;10519608;28;20207;-83
2024/01/28 20:34:04;;;;;;;84.70;30.70;;;2.60;1.00;;;;;;10389660;28;20208;-83
2024/01/28 20:39:29;;;;;;;103.90;37.90;;;2.60;99.90;;;;;;10379004;28;20198;-84
2024/01/28 20:44:50;;;;;;;64.87;26.40;;;2.70;99.90;;;;;;10366237;28;20461;-85
2024/01/28 20:50:11;;;;;;;38.70;18.97;;;2.70;1.00;;;;;;10396621;28;20199;-84
2024/01/28 20:55:33;;;;;;;68.87;28.77;;;2.80;1.00;;;;;;10365158;28;20494;-83
2024/01/28 21:00:54;;;;;;;90.13;33.40;;;2.80;1.00;;;;;;10365036;28;20318;-85
2024/01/28 21:06:16;;;;;;;89.77;40.03;;;2.80;1.00;;;;;;10364605;28;20203;-84
2024/01/28 21:11:37;;;;;;;49.53;23.23;;;2.80;99.90;;;;;;10372552;28;20552;-85
2024/01/28 21:16:58;;;;;;;34.50;17.13;;;2.80;1.00;;;;;;10389238;28;20230;-84
2024/01/28 21:22:20;;;;;;;19.40;11.67;;;2.80;1.00;;;;;;10293761;28;20247;-84
2024/01/28 21:27:43;;;;;;;24.60;12.43;;;2.80;99.90;;;;;;10504235;28;20516;-83
2024/01/28 21:33:04;;;;;;;29.13;15.17;;;2.80;99.90;;;;;;10471896;28;20239;-84
2024/01/28 21:38:25;;;;;;;24.03;13.87;;;2.80;26.40;;;;;;10351662;28;20199;-83
2024/01/28 21:43:47;;;;;;;33.30;17.43;;;2.80;99.90;;;;;;10267252;28;20235;-83
2024/01/28 21:49:08;;;;;;;41.17;24.17;;;2.70;1.00;;;;;;10356168;28;20199;-84
2024/01/28 21:54:31;;;;;;;46.23;23.33;;;2.70;1.00;;;;;;10311377;28;20223;-82
2024/01/28 21:59:52;;;;;;;39.87;20.93;;;2.50;99.90;;;;;;10292623;28;20536;-84
2024/01/28 22:05:14;;;;;;;35.43;19.47;;;2.50;99.90;;;;;;10291318;28;20235;-84
2024/01/28 22:10:35;;;;;;;27.93;15.90;;;2.40;1.00;;;;;;10493112;28;20370;-84
2024/01/28 22:15:56;;;;;;;31.47;15.37;;;2.30;1.00;;;;;;10402602;28;20231;-80
2024/01/28 22:21:18;;;;;;;29.87;15.27;;;2.30;1.00;;;;;;10392364;28;20238;-83
2024/01/28 22:26:39;;;;;;;40.67;20.37;;;2.20;1.00;;;;;;10472017;28;20198;-84
2024/01/28 22:32:00;;;;;;;43.50;19.63;;;2.20;1.00;;;;;;10468550;28;20263;-83
2024/01/28 22:37:22;;;;;;;40.30;18.17;;;2.10;99.90;;;;;;10363663;28;20202;-83
2024/01/28 22:42:43;;;;;;;51.10;22.00;;;2.10;1.00;;;;;;10366038;28;20233;-84
2024/01/28 22:48:05;;;;;;;46.83;21.27;;;2.10;99.90;;;;;;10352202;28;20199;-84
2024/01/28 22:53:27;;;;;;;69.80;29.33;;;2.10;1.00;;;;;;10366528;28;20281;-83
2024/01/28 22:58:49;;;;;;;39.30;20.03;;;2.10;99.90;;;;;;10291219;28;20225;-82
2024/01/28 23:04:10;;;;;;;32.47;17.83;;;2.20;1.00;;;;;;10269863;28;20223;-84
2024/01/28 23:09:32;;;;;;;28.80;16.43;;;2.10;1.00;;;;;;10446686;28;20191;-81
2024/01/28 23:14:53;;;;;;;30.90;14.90;;;2.00;1.00;;;;;;10433419;28;20211;-84
2024/01/28 23:20:16;;;;;;;20.63;12.37;;;2.00;99.90;;;;;;10295304;28;20238;-83
2024/01/28 23:25:37;;;;;;;21.07;13.43;;;2.10;1.00;;;;;;10400964;28;20191;-83
2024/01/28 23:31:00;;;;;;;23.30;11.83;;;2.10;99.90;;;;;;10500502;28;20240;-85
2024/01/28 23:36:22;;;;;;;24.43;13.40;;;2.20;1.00;;;;;;10316211;28;20191;-83
2024/01/28 23:41:43;;;;;;;23.90;14.37;;;2.20;1.00;;;;;;10296964;28;20222;-83
2024/01/28 23:47:05;;;;;;;29.87;16.27;;;2.30;1.00;;;;;;10343037;28;20220;-83
2024/01/28 23:52:26;;;;;;;27.03;14.93;;;2.30;21.10;;;;;;10397862;28;20231;-84
2024/01/28 23:57:48;;;;;;;30.27;16.83;;;2.30;99.90;;;;;;10323870;28;20534;-82
